Terminal Aerodrome Forecast
Issued by NWS Buffalo, NY

Home | Current Version | Previous Version | Text Only | Print | Product List | Glossary On
Versions: 1 2 3 4 5 6 7 8 9 10 11 12 13 14 15 16 17 18 19 20 21 22
000
FTUS41 KBUF 010903 AAA
TAFBUF
TAF AMD
KBUF 010903Z 0109/0206 07010KT 5SM -RA BR BKN040
     FM011100 09010KT P6SM VCSH OVC020
     FM011400 09008KT P6SM BKN020
     FM011700 04005KT P6SM BKN020
     FM012000 34005KT P6SM BKN020
     FM020500 02004KT P6SM -SHRA BKN020=

USA.gov is the U.S. government's official web portal to all federal, state and local government web resources and services.